Terminal Aerodrome Forecast
Issued by NWS

Current Version | Previous Version | Text Only | Print | Product List | Glossary Off
Versions: 1 2 3 4 5 6 7 8 9 10 11 12 13 14 15 16 17 18

000
FTUS41 KRNK 010541
TAFLWB
TAF
KLWB 010541Z 0106/0206 00000KT 4SM -RA BR OVC007 WS020/19035KT
     FM011300 19004KT 5SM -RA BR OVC015
     FM011600 24009KT P6SM -SHRA OVC025
     FM012300 00000KT P6SM SCT025 BKN100=

USA.gov is the U.S. government's official web portal to all federal, state and local government web resources and services.